Time;durP1;ratioP1;P1;durP2;ratioP2;P2;SDS_P1;SDS_P2;PMS_P1;PMS_P2;Temp;Humidity;BMP_temperature;BMP_pressure;BME280_temperature;BME280_humidity;BME280_pressure;Samples;Min_cycle;Max_cycle;Signal;HPM_P1;HPM_P2
2021/01/21 00:00:20;;;;;;;1.55;0.95;;;14.90;74.00;;;;;;5090573;28;20054;-46
2021/01/21 00:02:46;;;;;;;0.95;0.80;;;14.90;73.90;;;;;;5102825;28;20103;-45
2021/01/21 00:05:12;;;;;;;1.08;0.80;;;14.90;74.00;;;;;;5104032;28;20077;-44
2021/01/21 00:07:39;;;;;;;1.00;0.80;;;14.90;74.00;;;;;;5103974;28;20491;-45
2021/01/21 00:10:05;;;;;;;2.72;0.73;;;14.90;73.90;;;;;;5103430;28;20198;-48
2021/01/21 00:12:31;;;;;;;1.48;0.82;;;14.90;73.90;;;;;;5083752;28;20028;-46
2021/01/21 00:14:58;;;;;;;1.23;0.90;;;14.90;73.90;;;;;;5073497;28;20069;-46
2021/01/21 00:17:24;;;;;;;1.15;0.90;;;14.80;73.90;;;;;;5083376;28;20020;-46
2021/01/21 00:19:50;;;;;;;1.52;1.00;;;14.90;73.80;;;;;;5075304;28;20033;-46
2021/01/21 00:22:16;;;;;;;1.27;0.88;;;14.80;73.70;;;;;;5078756;28;20061;-48
2021/01/21 00:24:42;;;;;;;1.00;0.65;;;14.80;73.90;;;;;;5079424;28;20500;-44
2021/01/21 00:27:08;;;;;;;1.95;0.90;;;14.80;73.80;;;;;;5082988;28;20084;-46
2021/01/21 00:29:35;;;;;;;0.95;0.82;;;14.80;73.80;;;;;;5078156;28;20036;-44
2021/01/21 00:32:01;;;;;;;1.90;0.80;;;14.80;73.70;;;;;;5076312;28;20145;-44
2021/01/21 00:34:27;;;;;;;1.05;0.95;;;14.80;73.70;;;;;;5071909;28;20032;-44
2021/01/21 00:36:53;;;;;;;1.15;0.80;;;14.80;73.60;;;;;;5079257;28;20029;-45
2021/01/21 00:39:19;;;;;;;1.30;0.98;;;14.80;73.70;;;;;;5078093;28;20032;-43
2021/01/21 00:41:45;;;;;;;1.00;0.90;;;14.70;73.50;;;;;;5081081;28;20036;-44
2021/01/21 00:44:11;;;;;;;1.00;0.70;;;14.70;73.60;;;;;;5073962;28;20028;-45
2021/01/21 00:46:37;;;;;;;1.20;1.00;;;14.70;73.70;;;;;;5083178;28;20025;-44
2021/01/21 00:49:04;;;;;;;1.42;0.90;;;14.70;73.60;;;;;;5083160;28;20528;-44
2021/01/21 00:51:30;;;;;;;1.05;0.90;;;14.70;73.60;;;;;;5082691;28;20039;-45
2021/01/21 00:53:56;;;;;;;1.23;0.93;;;14.70;73.70;;;;;;5082954;28;20043;-45
2021/01/21 00:56:23;;;;;;;1.10;0.77;;;14.70;73.60;;;;;;5098445;28;20088;-43
2021/01/21 00:58:50;;;;;;;1.20;1.00;;;14.70;73.50;;;;;;5082980;28;20053;-44
2021/01/21 01:01:16;;;;;;;1.77;1.13;;;14.60;73.50;;;;;;5083214;28;20052;-46
2021/01/21 01:03:42;;;;;;;1.50;1.00;;;14.60;73.50;;;;;;5082956;28;20033;-46
2021/01/21 01:06:09;;;;;;;0.88;0.88;;;14.60;73.40;;;;;;5082896;28;20043;-43
2021/01/21 01:08:35;;;;;;;1.00;0.82;;;14.60;73.40;;;;;;5082867;28;20035;-45
2021/01/21 01:11:02;;;;;;;1.50;0.77;;;14.60;73.40;;;;;;5085829;28;20036;-45
2021/01/21 01:13:28;;;;;;;1.50;1.00;;;14.60;73.50;;;;;;5081275;28;20021;-45
2021/01/21 01:15:54;;;;;;;0.90;0.80;;;14.60;73.20;;;;;;5079059;28;20048;-44
2021/01/21 01:18:20;;;;;;;0.80;0.77;;;14.60;73.50;;;;;;5078529;28;20028;-43
2021/01/21 01:20:48;;;;;;;1.50;0.77;;;14.60;73.40;;;;;;5082489;28;20031;-44
2021/01/21 01:23:15;;;;;;;1.30;1.10;;;14.60;73.40;;;;;;5092091;28;20025;-44
2021/01/21 01:25:41;;;;;;;1.77;0.73;;;14.50;73.10;;;;;;5081561;28;20025;-44
2021/01/21 01:28:07;;;;;;;1.17;0.85;;;14.50;73.30;;;;;;5083374;28;20043;-47
2021/01/21 01:30:33;;;;;;;1.58;0.90;;;14.50;73.20;;;;;;5086594;28;20025;-43
2021/01/21 01:33:00;;;;;;;1.10;0.70;;;14.50;73.30;;;;;;5086217;28;20054;-44
2021/01/21 01:35:26;;;;;;;1.10;1.00;;;14.50;73.30;;;;;;5086137;28;20066;-44
2021/01/21 01:37:52;;;;;;;2.33;1.00;;;14.50;73.20;;;;;;5086311;28;20059;-45
2021/01/21 01:40:18;;;;;;;1.10;1.00;;;14.40;73.20;;;;;;5086692;28;20028;-43
2021/01/21 01:42:44;;;;;;;1.63;1.10;;;14.40;73.30;;;;;;5086101;28;20031;-43
2021/01/21 01:45:11;;;;;;;1.00;0.90;;;14.40;73.20;;;;;;5086147;28;20035;-43
2021/01/21 01:47:40;;;;;;;1.25;0.90;;;14.40;73.20;;;;;;5086443;28;20025;-44
2021/01/21 01:50:07;;;;;;;1.23;0.90;;;14.40;73.20;;;;;;5086239;28;20131;-45
2021/01/21 01:52:33;;;;;;;0.80;0.77;;;14.40;73.30;;;;;;5099656;28;20365;-44
2021/01/21 01:55:00;;;;;;;1.40;0.77;;;14.40;73.20;;;;;;5096431;28;20047;-43
2021/01/21 01:57:26;;;;;;;0.85;0.70;;;14.40;73.10;;;;;;5085968;28;20282;-44
2021/01/21 01:59:54;;;;;;;1.10;0.90;;;14.40;72.80;;;;;;5086108;28;20396;-45
2021/01/21 02:02:20;;;;;;;1.55;1.00;;;14.30;72.90;;;;;;5085740;28;20029;-44
2021/01/21 02:04:46;;;;;;;1.98;1.10;;;14.30;73.00;;;;;;5084634;28;20112;-46
2021/01/21 02:07:13;;;;;;;0.80;0.80;;;14.30;73.20;;;;;;5085706;28;20542;-45
2021/01/21 02:09:39;;;;;;;1.38;1.02;;;14.30;73.00;;;;;;5080642;28;20029;-44
2021/01/21 02:12:17;;;;;;;1.27;0.95;;;14.30;73.20;;;;;;5079586;28;20115;-45
2021/01/21 02:14:46;;;;;;;;;;;14.30;73.00;;;;;;5085808;28;20092;-45
2021/01/21 02:17:19;;;;;;;1.20;0.90;;;14.30;73.20;;;;;;5085786;28;19929;-46
2021/01/21 02:20:03;;;;;;;1.10;0.90;;;14.30;73.20;;;;;;5093437;28;20033;-44
2021/01/21 02:23:01;;;;;;;1.10;1.00;;;14.30;73.30;;;;;;5097891;28;20024;-43
2021/01/21 02:25:31;;;;;;;1.27;0.90;;;14.20;73.20;;;;;;5071832;28;20043;-44
2021/01/21 02:28:09;;;;;;;1.30;1.00;;;14.30;73.00;;;;;;5047587;28;20054;-44
2021/01/21 02:30:56;;;;;;;1.20;1.00;;;14.30;73.20;;;;;;5065446;28;20033;-43
2021/01/21 02:33:50;;;;;;;1.58;0.90;;;14.20;73.20;;;;;;5065161;28;20033;-43
2021/01/21 02:36:20;;;;;;;1.60;1.00;;;14.20;73.10;;;;;;5065215;28;20102;-45
2021/01/21 02:38:46;;;;;;;0.93;0.85;;;14.20;73.40;;;;;;5068186;28;20020;-43
2021/01/21 02:41:14;;;;;;;1.23;1.00;;;14.20;73.50;;;;;;5085917;28;20060;-45
2021/01/21 02:43:40;;;;;;;1.10;1.00;;;14.20;73.40;;;;;;5084866;28;20277;-44
2021/01/21 02:46:06;;;;;;;2.25;1.00;;;14.20;73.30;;;;;;5084920;28;20477;-43
2021/01/21 02:48:32;;;;;;;1.33;1.20;;;14.20;73.40;;;;;;5083755;28;20060;-43
2021/01/21 02:51:14;;;;;;;1.10;1.00;;;14.20;73.50;;;;;;5083510;28;20465;-44
2021/01/21 02:53:40;;;;;;;1.77;1.05;;;14.20;74.30;;;;;;5083308;28;20100;-46
2021/01/21 02:56:09;;;;;;;1.50;0.88;;;14.20;73.60;;;;;;5084752;28;20064;-46
2021/01/21 02:58:36;;;;;;;1.30;1.10;;;14.20;73.60;;;;;;5084893;28;20047;-43
2021/01/21 03:01:03;;;;;;;1.30;1.00;;;14.10;73.50;;;;;;5066886;28;20052;-43
2021/01/21 03:03:29;;;;;;;1.25;0.90;;;14.10;73.50;;;;;;5084599;28;20028;-43
2021/01/21 03:06:00;;;;;;;3.10;1.10;;;14.10;73.40;;;;;;5066642;28;20029;-43
2021/01/21 03:08:29;;;;;;;1.27;1.17;;;14.10;73.50;;;;;;5066710;28;20037;-46
2021/01/21 03:11:08;;;;;;;2.38;1.38;;;14.10;73.60;;;;;;5090554;28;20020;-43
2021/01/21 03:13:34;;;;;;;1.00;0.82;;;14.10;73.40;;;;;;5082176;28;20067;-41
2021/01/21 03:16:01;;;;;;;1.98;1.00;;;14.10;73.40;;;;;;5077782;28;20454;-43
2021/01/21 03:18:27;;;;;;;1.00;0.90;;;14.10;73.70;;;;;;5080238;28;20036;-42
2021/01/21 03:20:53;;;;;;;1.05;0.85;;;14.10;73.60;;;;;;5074716;28;20111;-44
2021/01/21 03:23:19;;;;;;;1.08;0.98;;;14.00;73.60;;;;;;5076538;28;20035;-43
2021/01/21 03:25:45;;;;;;;1.33;0.80;;;14.10;73.60;;;;;;5076145;28;20063;-42
2021/01/21 03:28:11;;;;;;;1.17;0.98;;;14.00;73.60;;;;;;5075256;28;20075;-42
2021/01/21 03:30:37;;;;;;;2.38;1.13;;;14.00;73.50;;;;;;5077554;28;20035;-42
2021/01/21 03:33:04;;;;;;;1.48;1.00;;;14.00;73.40;;;;;;5074084;28;20060;-43
2021/01/21 03:35:30;;;;;;;1.55;1.10;;;14.00;73.40;;;;;;5077086;28;20100;-42
2021/01/21 03:37:56;;;;;;;1.38;1.10;;;14.00;73.40;;;;;;5077884;28;20048;-41
2021/01/21 03:40:22;;;;;;;0.95;0.80;;;14.00;73.60;;;;;;5076324;28;20034;-44
2021/01/21 03:42:48;;;;;;;2.55;1.10;;;14.00;73.50;;;;;;5074263;28;20020;-44
2021/01/21 03:45:14;;;;;;;1.00;0.90;;;14.00;73.40;;;;;;5071425;28;20055;-42
2021/01/21 03:47:40;;;;;;;5.07;1.30;;;13.90;73.40;;;;;;5083981;28;20032;-43
2021/01/21 03:50:07;;;;;;;1.58;1.13;;;13.90;73.40;;;;;;5083544;28;20024;-42
2021/01/21 03:52:33;;;;;;;2.58;1.00;;;13.90;73.50;;;;;;5083072;28;20027;-42
2021/01/21 03:54:59;;;;;;;1.25;0.98;;;13.90;73.60;;;;;;5082874;28;20044;-43
2021/01/21 03:57:25;;;;;;;1.38;1.00;;;13.90;73.50;;;;;;5083361;28;20084;-42
2021/01/21 03:59:51;;;;;;;2.05;1.10;;;13.90;73.50;;;;;;5087636;28;20035;-42
2021/01/21 04:02:18;;;;;;;2.20;1.00;;;13.90;73.60;;;;;;5104111;28;20044;-43
2021/01/21 04:04:44;;;;;;;1.40;0.90;;;13.90;73.60;;;;;;5100427;28;20553;-42
2021/01/21 04:07:10;;;;;;;1.50;1.05;;;13.90;73.70;;;;;;5083655;28;20036;-42
2021/01/21 04:09:36;;;;;;;1.48;1.20;;;13.90;73.50;;;;;;5083263;28;20055;-42
2021/01/21 04:12:02;;;;;;;1.38;0.98;;;13.90;73.60;;;;;;5086570;28;20127;-43
2021/01/21 04:14:28;;;;;;;1.23;1.00;;;13.90;73.70;;;;;;5083351;28;20032;-43
2021/01/21 04:16:54;;;;;;;1.23;0.98;;;13.90;74.30;;;;;;5083479;28;20020;-43
2021/01/21 04:19:20;;;;;;;1.85;1.20;;;13.80;73.60;;;;;;5081817;28;20036;-48
2021/01/21 04:21:47;;;;;;;1.52;1.00;;;13.80;73.60;;;;;;5083446;28;20110;-42
2021/01/21 04:24:13;;;;;;;1.58;1.20;;;13.80;73.60;;;;;;5083407;28;20024;-43
2021/01/21 04:26:39;;;;;;;1.52;1.10;;;13.80;73.70;;;;;;5083456;28;20033;-41
2021/01/21 04:29:05;;;;;;;2.00;1.10;;;13.80;73.60;;;;;;5083187;28;20634;-42
2021/01/21 04:31:31;;;;;;;2.75;1.10;;;13.80;73.60;;;;;;5083183;28;20082;-44
2021/01/21 04:33:58;;;;;;;2.42;1.08;;;13.80;73.70;;;;;;5083072;28;20028;-43
2021/01/21 04:36:24;;;;;;;2.83;1.05;;;13.80;73.80;;;;;;5083331;28;20037;-45
2021/01/21 04:38:50;;;;;;;1.45;0.98;;;13.80;73.80;;;;;;5081683;28;20059;-43
2021/01/21 04:41:16;;;;;;;2.22;1.20;;;13.80;73.80;;;;;;5088885;28;20054;-42
2021/01/21 04:43:43;;;;;;;1.48;1.00;;;13.80;73.60;;;;;;5075580;28;20084;-46
2021/01/21 04:46:10;;;;;;;2.08;1.27;;;13.80;73.80;;;;;;5083389;28;20119;-43
2021/01/21 04:48:37;;;;;;;1.67;1.13;;;13.80;73.70;;;;;;5083264;28;20021;-43
2021/01/21 04:51:03;;;;;;;1.48;1.00;;;13.70;73.60;;;;;;5081847;28;20028;-43
2021/01/21 04:53:29;;;;;;;3.83;1.05;;;13.70;73.70;;;;;;5065166;28;20035;-43
2021/01/21 04:55:57;;;;;;;1.17;0.80;;;13.70;73.60;;;;;;5082639;28;20043;-43
2021/01/21 04:58:31;;;;;;;1.92;1.10;;;13.70;73.70;;;;;;5082752;28;20044;-42
2021/01/21 05:00:58;;;;;;;1.70;1.15;;;13.70;73.60;;;;;;5082942;28;20553;-42
2021/01/21 05:03:24;;;;;;;;;;;13.70;73.60;;;;;;5084738;28;20029;-45
2021/01/21 05:05:50;;;;;;;2.10;1.33;;;13.70;73.70;;;;;;5086922;28;19965;-44
2021/01/21 05:08:17;;;;;;;2.22;1.15;;;13.70;73.50;;;;;;5085415;28;20054;-43
2021/01/21 05:10:43;;;;;;;1.25;0.82;;;13.70;73.60;;;;;;5087673;28;20031;-45
2021/01/21 05:13:09;;;;;;;1.67;1.08;;;13.70;73.60;;;;;;5070945;28;20165;-43
2021/01/21 05:15:35;;;;;;;1.65;1.25;;;13.70;73.60;;;;;;5066963;28;20075;-42
2021/01/21 05:18:01;;;;;;;2.83;1.17;;;13.60;73.60;;;;;;5094355;28;20088;-42
2021/01/21 05:20:27;;;;;;;1.52;1.00;;;13.60;73.60;;;;;;5086715;28;20030;-44
2021/01/21 05:22:57;;;;;;;1.50;1.10;;;13.60;73.60;;;;;;5086679;28;20032;-44
2021/01/21 05:25:25;;;;;;;1.65;1.00;;;13.60;73.50;;;;;;5086680;28;20040;-44
2021/01/21 05:27:55;;;;;;;1.50;1.00;;;13.60;73.70;;;;;;5086597;28;20032;-46
2021/01/21 05:30:21;;;;;;;1.45;0.90;;;13.60;73.60;;;;;;5084807;28;20041;-44
2021/01/21 05:32:49;;;;;;;1.17;0.98;;;13.60;73.60;;;;;;5086823;28;20025;-43
2021/01/21 05:35:16;;;;;;;1.23;0.88;;;13.60;73.60;;;;;;5086280;28;20048;-43
2021/01/21 05:37:44;;;;;;;1.43;1.10;;;13.60;73.50;;;;;;5086422;28;20059;-43
2021/01/21 05:40:11;;;;;;;2.90;1.10;;;13.60;73.60;;;;;;5086735;28;20036;-43
2021/01/21 05:42:40;;;;;;;1.27;1.05;;;13.60;73.70;;;;;;5073784;28;20017;-44
2021/01/21 05:45:07;;;;;;;1.55;1.10;;;13.50;73.50;;;;;;5064973;28;20033;-43
2021/01/21 05:47:33;;;;;;;1.27;1.10;;;13.50;73.70;;;;;;5066326;28;20092;-42
2021/01/21 05:50:00;;;;;;;2.27;1.10;;;13.50;73.50;;;;;;5068092;28;20119;-42
2021/01/21 05:52:26;;;;;;;;;;;13.50;73.70;;;;;;5076319;28;20057;-42
2021/01/21 05:54:52;;;;;;;1.08;0.90;;;13.50;73.60;;;;;;5107287;27;19928;-43
2021/01/21 05:57:19;;;;;;;1.95;1.00;;;13.50;73.60;;;;;;5085357;28;20040;-43
2021/01/21 05:59:47;;;;;;;1.52;1.08;;;13.50;73.60;;;;;;5084554;28;20169;-43
2021/01/21 06:02:14;;;;;;;1.90;1.15;;;13.50;73.70;;;;;;5080350;28;20051;-42
2021/01/21 06:04:40;;;;;;;1.27;1.10;;;13.50;73.70;;;;;;5063533;28;20063;-42
2021/01/21 06:07:06;;;;;;;2.37;1.20;;;13.50;73.70;;;;;;5082390;28;20024;-42
2021/01/21 06:09:32;;;;;;;1.50;1.10;;;13.50;73.70;;;;;;5104765;28;20412;-41
2021/01/21 06:12:03;;;;;;;1.88;0.90;;;13.40;73.70;;;;;;5077738;28;20032;-42
2021/01/21 06:14:29;;;;;;;1.63;0.98;;;13.40;73.60;;;;;;5096357;28;20044;-44
2021/01/21 06:16:56;;;;;;;1.00;0.88;;;13.40;73.60;;;;;;5096503;28;20036;-43
2021/01/21 06:19:22;;;;;;;1.03;0.97;;;13.40;73.60;;;;;;5069681;28;20024;-42
2021/01/21 06:21:55;;;;;;;1.77;1.13;;;13.40;73.70;;;;;;5084046;28;20364;-43
2021/01/21 06:24:24;;;;;;;1.27;1.02;;;13.40;73.80;;;;;;5083082;28;20025;-44
2021/01/21 06:26:50;;;;;;;1.55;1.30;;;13.40;73.70;;;;;;5066844;28;20054;-46
2021/01/21 06:29:17;;;;;;;2.42;0.95;;;13.40;73.70;;;;;;5066143;28;20029;-42
2021/01/21 06:31:44;;;;;;;1.40;1.10;;;13.40;73.70;;;;;;5084273;28;20024;-42
2021/01/21 06:34:18;;;;;;;1.67;1.17;;;13.30;73.70;;;;;;5082923;28;20043;-47
2021/01/21 06:36:47;;;;;;;2.05;1.40;;;13.30;73.70;;;;;;5084100;28;20276;-42
2021/01/21 06:39:19;;;;;;;1.30;1.20;;;13.30;73.70;;;;;;5082716;28;20017;-43
2021/01/21 06:41:45;;;;;;;1.10;1.00;;;13.30;73.70;;;;;;5091043;28;20035;-41
2021/01/21 06:44:15;;;;;;;1.27;1.00;;;13.30;73.70;;;;;;5083017;28;20038;-42
2021/01/21 06:46:41;;;;;;;1.35;1.10;;;13.30;73.70;;;;;;5082905;28;20024;-42
2021/01/21 06:49:07;;;;;;;1.80;1.17;;;13.30;73.70;;;;;;5099715;28;20021;-42
2021/01/21 06:51:33;;;;;;;1.98;1.30;;;13.30;73.80;;;;;;5083958;28;20775;-42
2021/01/21 06:54:00;;;;;;;1.30;1.17;;;13.30;73.80;;;;;;5099390;28;20052;-44
2021/01/21 06:56:32;;;;;;;1.63;1.05;;;13.30;73.70;;;;;;5082151;28;20024;-45
2021/01/21 06:58:58;;;;;;;1.83;1.07;;;13.30;73.80;;;;;;4919427;28;4714166;-43
2021/01/21 07:01:31;;;;;;;1.83;1.20;;;13.20;73.60;;;;;;5084468;28;20061;-42
2021/01/21 07:04:21;;;;;;;1.45;1.20;;;13.20;73.60;;;;;;5084730;28;20288;-42
2021/01/21 07:06:53;;;;;;;1.42;1.10;;;13.20;73.60;;;;;;5084695;28;20036;-44
2021/01/21 07:09:23;;;;;;;2.15;1.20;;;13.20;73.70;;;;;;5084119;28;20032;-43
2021/01/21 07:11:50;;;;;;;1.42;1.13;;;13.20;73.80;;;;;;5087150;28;20028;-43
2021/01/21 07:14:26;;;;;;;1.70;1.27;;;13.20;73.70;;;;;;5084528;28;20028;-43
2021/01/21 07:16:57;;;;;;;1.20;1.10;;;13.20;73.70;;;;;;5083154;28;20421;-47
2021/01/21 07:19:34;;;;;;;1.85;1.05;;;13.20;73.80;;;;;;5087044;28;20046;-46
2021/01/21 07:22:21;;;;;;;1.17;0.90;;;13.20;73.80;;;;;;5084097;28;20119;-44
2021/01/21 07:24:58;;;;;;;1.88;1.38;;;13.20;73.80;;;;;;5085095;28;20087;-44
2021/01/21 07:27:26;;;;;;;1.53;1.13;;;13.20;73.80;;;;;;5082195;28;20105;-42
2021/01/21 07:30:16;;;;;;;1.52;1.05;;;13.20;73.80;;;;;;5084091;28;20488;-43
2021/01/21 07:32:42;;;;;;;1.30;1.17;;;13.10;73.90;;;;;;5083921;28;20048;-42
2021/01/21 07:35:34;;;;;;;1.58;1.10;;;13.10;73.80;;;;;;5084101;28;20051;-43
2021/01/21 07:38:00;;;;;;;1.30;1.05;;;13.10;73.80;;;;;;5084000;28;20028;-43
2021/01/21 07:40:47;;;;;;;1.60;1.30;;;13.10;73.90;;;;;;5084706;28;20032;-43
2021/01/21 07:43:13;;;;;;;1.60;1.05;;;13.10;73.80;;;;;;5083650;28;20029;-43
2021/01/21 07:45:39;;;;;;;1.30;1.00;;;13.10;73.90;;;;;;5083827;28;20051;-48
2021/01/21 07:48:19;;;;;;;1.98;1.10;;;13.10;73.90;;;;;;5082703;28;20031;-43
2021/01/21 07:50:45;;;;;;;1.27;0.85;;;13.10;74.60;;;;;;5083921;28;20084;-45
2021/01/21 07:53:21;;;;;;;1.73;1.17;;;13.10;74.00;;;;;;5083509;28;20048;-47
2021/01/21 07:55:48;;;;;;;1.42;1.13;;;13.10;73.90;;;;;;5083129;28;20489;-44
2021/01/21 07:58:18;;;;;;;1.67;1.20;;;13.10;74.00;;;;;;5083697;28;20052;-44
2021/01/21 08:00:45;;;;;;;1.40;1.20;;;13.10;74.00;;;;;;5063656;28;20040;-45
2021/01/21 08:03:11;;;;;;;1.63;1.45;;;13.00;74.00;;;;;;5063547;28;20040;-44
2021/01/21 08:05:37;;;;;;;1.80;1.20;;;13.10;74.00;;;;;;5063462;28;20040;-44
2021/01/21 08:08:04;;;;;;;1.83;1.20;;;13.10;74.00;;;;;;5063235;28;20040;-44
2021/01/21 08:10:34;;;;;;;2.20;1.23;;;13.00;74.00;;;;;;5078681;28;20031;-46
2021/01/21 08:13:05;;;;;;;1.52;1.05;;;13.00;74.10;;;;;;5084827;28;20056;-43
2021/01/21 08:15:32;;;;;;;2.08;1.50;;;13.00;73.90;;;;;;5081883;28;20045;-47
2021/01/21 08:17:59;;;;;;;1.67;1.15;;;13.00;74.10;;;;;;5083181;28;20021;-45
2021/01/21 08:20:27;;;;;;;1.13;1.03;;;13.00;74.10;;;;;;5083514;28;20052;-44
2021/01/21 08:23:03;;;;;;;1.77;1.40;;;13.00;74.10;;;;;;5083362;28;20017;-45
2021/01/21 08:25:40;;;;;;;1.30;1.20;;;13.00;74.10;;;;;;5083053;28;20035;-44
2021/01/21 08:28:06;;;;;;;1.33;1.10;;;13.00;74.20;;;;;;5083340;28;20797;-45
2021/01/21 08:30:32;;;;;;;1.55;1.30;;;13.00;74.10;;;;;;5083387;28;20035;-44
2021/01/21 08:32:59;;;;;;;1.75;1.27;;;13.00;74.10;;;;;;5083401;28;20024;-44
2021/01/21 08:35:30;;;;;;;1.23;1.13;;;13.00;74.20;;;;;;5081826;28;20032;-44
2021/01/21 08:37:58;;;;;;;2.25;1.50;;;13.00;74.10;;;;;;5064208;28;20801;-45
2021/01/21 08:40:24;;;;;;;;;;;13.00;74.20;;;;;;5099611;28;20058;-44
2021/01/21 08:42:51;;;;;;;1.15;0.93;;;13.00;74.20;;;;;;5082928;28;19966;-44
2021/01/21 08:45:17;;;;;;;1.00;0.90;;;13.00;74.10;;;;;;5097246;28;20797;-45
2021/01/21 08:47:50;;;;;;;2.30;1.10;;;13.00;74.30;;;;;;5072074;28;20379;-44
2021/01/21 08:50:17;;;;;;;2.25;1.45;;;12.90;74.00;;;;;;5063023;28;20025;-44
2021/01/21 08:52:55;;;;;;;;;;;12.90;74.10;;;;;;5074528;28;20040;-44
2021/01/21 08:55:22;;;;;;;1.38;0.98;;;12.90;74.10;;;;;;5081744;28;19999;-44
2021/01/21 08:58:04;;;;;;;1.95;1.15;;;12.90;74.10;;;;;;5066286;28;20047;-45
2021/01/21 09:00:31;;;;;;;1.70;1.17;;;12.90;74.20;;;;;;5062914;28;20513;-44
2021/01/21 09:02:58;;;;;;;1.30;1.20;;;12.90;74.20;;;;;;5062979;28;20052;-45
2021/01/21 09:05:24;;;;;;;1.45;1.10;;;12.90;74.20;;;;;;5062735;28;20068;-45
2021/01/21 09:08:01;;;;;;;1.73;1.10;;;12.90;74.20;;;;;;5062860;28;20033;-45
2021/01/21 09:10:35;;;;;;;1.50;1.17;;;12.90;74.20;;;;;;5069052;28;20032;-44
2021/01/21 09:13:01;;;;;;;1.70;1.30;;;12.90;74.20;;;;;;5088415;28;20044;-46
2021/01/21 09:15:28;;;;;;;1.10;1.00;;;12.90;74.20;;;;;;5077379;28;20048;-44
2021/01/21 09:18:06;;;;;;;2.03;1.13;;;12.90;74.30;;;;;;5072169;28;20151;-45
2021/01/21 09:20:33;;;;;;;1.42;1.00;;;12.90;74.30;;;;;;5075750;28;20028;-48
2021/01/21 09:23:31;;;;;;;1.10;1.00;;;12.90;74.20;;;;;;5079299;28;20027;-47
2021/01/21 09:25:57;;;;;;;1.00;0.90;;;12.90;74.30;;;;;;5031191;28;20038;-44
2021/01/21 09:28:23;;;;;;;1.20;1.08;;;12.90;74.30;;;;;;5017999;28;20080;-45
2021/01/21 09:30:49;;;;;;;1.80;1.17;;;12.90;74.30;;;;;;5027248;28;20115;-44
2021/01/21 09:33:16;;;;;;;1.58;1.08;;;12.80;74.30;;;;;;5001773;28;20113;-44
2021/01/21 09:35:42;;;;;;;1.80;1.13;;;12.90;74.30;;;;;;5027208;28;20046;-45
2021/01/21 09:38:08;;;;;;;1.58;1.00;;;12.80;74.20;;;;;;5037469;28;20033;-45
2021/01/21 09:40:35;;;;;;;1.67;1.20;;;12.80;74.30;;;;;;5033908;28;20040;-44
2021/01/21 09:43:04;;;;;;;1.17;0.88;;;12.80;74.40;;;;;;5024458;28;20037;-44
2021/01/21 09:45:32;;;;;;;1.23;1.05;;;12.80;74.40;;;;;;5019967;28;20030;-44
2021/01/21 09:47:58;;;;;;;1.50;1.20;;;12.80;74.30;;;;;;5019914;28;20058;-44
2021/01/21 09:50:24;;;;;;;2.17;1.20;;;12.80;74.40;;;;;;5024211;28;20021;-45
2021/01/21 09:52:51;;;;;;;1.00;0.90;;;12.80;74.40;;;;;;5034823;28;20076;-47
2021/01/21 09:55:17;;;;;;;1.10;0.95;;;12.80;74.40;;;;;;5043346;28;20454;-45
2021/01/21 09:57:43;;;;;;;1.60;1.10;;;12.80;74.40;;;;;;5043157;28;20041;-44
2021/01/21 10:00:11;;;;;;;2.10;1.00;;;12.80;74.40;;;;;;5043419;28;20030;-48
2021/01/21 10:02:37;;;;;;;;;;;12.80;74.40;;;;;;5063256;28;20032;-44
2021/01/21 10:05:03;;;;;;;2.75;1.00;;;12.80;74.40;;;;;;5065836;28;19915;-44
2021/01/21 10:07:29;;;;;;;2.17;0.90;;;12.80;74.50;;;;;;5081219;28;20028;-45
2021/01/21 10:09:56;;;;;;;1.23;1.10;;;12.80;74.50;;;;;;5065567;28;20033;-44
2021/01/21 10:12:22;;;;;;;1.55;1.00;;;12.80;74.50;;;;;;5071536;28;20464;-44
2021/01/21 10:14:48;;;;;;;2.00;1.33;;;12.80;74.50;;;;;;5065774;28;20461;-45
2021/01/21 10:17:14;;;;;;;0.90;0.90;;;12.80;74.50;;;;;;5086232;28;20032;-44
2021/01/21 10:19:40;;;;;;;1.23;1.00;;;12.80;74.60;;;;;;5085891;28;20570;-44
2021/01/21 10:22:06;;;;;;;1.20;1.08;;;12.80;74.50;;;;;;5085580;28;20033;-46
2021/01/21 10:24:33;;;;;;;1.00;0.90;;;12.80;74.60;;;;;;5084224;28;20024;-45
2021/01/21 10:26:59;;;;;;;1.10;1.00;;;12.70;74.50;;;;;;5085354;28;20032;-44
2021/01/21 10:29:25;;;;;;;1.65;1.15;;;12.80;74.60;;;;;;5083700;28;20528;-44
2021/01/21 10:31:52;;;;;;;1.33;1.10;;;12.70;74.50;;;;;;5085451;28;20028;-47
2021/01/21 10:34:18;;;;;;;1.35;1.02;;;12.80;74.60;;;;;;5085485;28;20043;-44
2021/01/21 10:36:44;;;;;;;1.98;1.33;;;12.80;74.60;;;;;;5084961;28;20083;-45
2021/01/21 10:39:10;;;;;;;1.00;0.90;;;12.70;74.50;;;;;;5085051;28;20416;-45
2021/01/21 10:41:36;;;;;;;1.65;1.27;;;12.70;74.60;;;;;;5085014;28;20043;-45
2021/01/21 10:44:03;;;;;;;1.25;1.15;;;12.70;74.60;;;;;;5083011;28;20485;-45
2021/01/21 10:46:29;;;;;;;1.42;1.15;;;12.70;74.60;;;;;;5079634;28;20037;-44
2021/01/21 10:48:55;;;;;;;1.50;1.10;;;12.70;74.60;;;;;;5087127;28;20127;-44
2021/01/21 10:51:21;;;;;;;1.23;1.13;;;12.70;74.60;;;;;;5083183;28;20043;-45
2021/01/21 10:53:47;;;;;;;1.20;0.82;;;12.70;74.60;;;;;;5085813;28;20020;-46
2021/01/21 10:56:16;;;;;;;1.23;1.13;;;12.70;74.70;;;;;;5080230;28;20128;-45
2021/01/21 10:58:42;;;;;;;1.30;1.20;;;12.70;74.60;;;;;;5087213;28;20048;-44
2021/01/21 11:01:08;;;;;;;1.27;1.08;;;12.70;74.60;;;;;;5086351;28;20028;-44
2021/01/21 11:03:35;;;;;;;2.00;1.20;;;12.70;74.70;;;;;;5085419;28;20380;-44
2021/01/21 11:06:01;;;;;;;1.48;1.30;;;12.70;74.70;;;;;;5084561;28;20028;-45
2021/01/21 11:08:27;;;;;;;2.05;1.20;;;12.70;74.70;;;;;;5085034;28;20024;-44
2021/01/21 11:10:53;;;;;;;1.90;1.10;;;12.70;74.70;;;;;;5079130;28;20032;-44
2021/01/21 11:13:19;;;;;;;1.15;1.05;;;12.70;74.80;;;;;;5083764;28;20021;-44
2021/01/21 11:15:46;;;;;;;1.45;1.20;;;12.70;74.80;;;;;;5084209;28;20040;-46
2021/01/21 11:18:13;;;;;;;2.30;1.13;;;12.60;74.70;;;;;;5084399;28;20485;-43
2021/01/21 11:20:39;;;;;;;1.17;1.08;;;12.70;74.80;;;;;;5084368;28;20047;-44
2021/01/21 11:23:06;;;;;;;1.38;1.17;;;12.70;74.80;;;;;;5084447;28;20103;-44
2021/01/21 11:25:33;;;;;;;1.42;1.00;;;12.60;74.80;;;;;;5084349;28;20032;-44
2021/01/21 11:27:59;;;;;;;1.48;1.20;;;12.60;74.80;;;;;;5083781;28;20029;-47
2021/01/21 11:30:25;;;;;;;1.50;1.40;;;12.60;74.80;;;;;;5086952;28;20079;-47
2021/01/21 11:32:51;;;;;;;1.07;0.97;;;12.60;74.80;;;;;;5084555;28;20028;-44
2021/01/21 11:35:18;;;;;;;1.50;1.00;;;12.70;74.90;;;;;;5084204;28;20480;-46
2021/01/21 11:37:44;;;;;;;1.38;1.00;;;12.70;74.90;;;;;;5085847;28;20024;-44
2021/01/21 11:40:10;;;;;;;1.17;1.02;;;12.70;74.90;;;;;;5084650;28;20135;-43
2021/01/21 11:42:37;;;;;;;0.80;0.80;;;12.70;74.90;;;;;;5102384;28;20028;-46
2021/01/21 11:45:05;;;;;;;1.45;1.17;;;12.70;75.00;;;;;;5104219;28;20035;-45
2021/01/21 11:47:39;;;;;;;1.08;0.85;;;12.60;74.90;;;;;;5104374;28;20061;-45
2021/01/21 11:50:08;;;;;;;1.17;0.80;;;12.60;74.90;;;;;;5104204;28;20043;-43
2021/01/21 11:52:34;;;;;;;1.05;0.93;;;12.60;75.00;;;;;;5104143;28;20032;-43
2021/01/21 11:55:00;;;;;;;1.20;0.98;;;12.60;74.90;;;;;;5102564;28;20032;-46
2021/01/21 11:57:26;;;;;;;1.23;1.08;;;12.60;74.90;;;;;;5103882;28;20051;-43
2021/01/21 11:59:52;;;;;;;0.80;0.80;;;12.60;75.00;;;;;;5085484;28;20051;-44
2021/01/21 12:02:18;;;;;;;1.30;1.10;;;12.60;75.00;;;;;;5083573;28;20024;-46
2021/01/21 12:04:44;;;;;;;0.98;0.88;;;12.60;75.00;;;;;;5083840;28;20021;-47
2021/01/21 12:07:11;;;;;;;1.60;0.95;;;12.60;75.00;;;;;;5084803;28;20031;-43
2021/01/21 12:09:37;;;;;;;1.42;1.20;;;12.60;75.00;;;;;;5080956;28;20039;-43
2021/01/21 12:12:03;;;;;;;1.20;1.00;;;12.60;75.10;;;;;;5093645;28;20127;-43
2021/01/21 12:14:30;;;;;;;2.08;1.02;;;12.60;75.00;;;;;;5092045;28;20036;-43
2021/01/21 12:16:56;;;;;;;1.17;0.95;;;12.60;75.10;;;;;;5089107;28;20028;-44
2021/01/21 12:19:22;;;;;;;1.58;1.30;;;12.60;75.10;;;;;;5088439;28;20032;-42
2021/01/21 12:21:49;;;;;;;1.35;1.20;;;12.60;75.10;;;;;;5091380;28;20043;-44
2021/01/21 12:24:15;;;;;;;1.70;0.93;;;12.60;75.10;;;;;;5089934;28;20586;-44
2021/01/21 12:26:41;;;;;;;1.10;0.90;;;12.60;75.10;;;;;;5093935;28;20028;-47
2021/01/21 12:29:07;;;;;;;2.03;0.95;;;12.60;75.10;;;;;;5090373;28;20025;-43
2021/01/21 12:31:33;;;;;;;1.20;1.00;;;12.60;75.20;;;;;;5089648;28;20024;-43
2021/01/21 12:33:59;;;;;;;1.23;1.00;;;12.60;75.20;;;;;;5089842;28;20043;-44
2021/01/21 12:36:25;;;;;;;1.05;0.95;;;12.60;75.20;;;;;;5095816;28;20028;-43
2021/01/21 12:38:52;;;;;;;1.10;1.00;;;12.60;75.20;;;;;;5088901;28;20024;-43
2021/01/21 12:41:18;;;;;;;1.10;1.00;;;12.60;75.20;;;;;;5087332;28;20058;-44
2021/01/21 12:43:44;;;;;;;1.70;1.25;;;12.60;75.20;;;;;;5097722;28;20052;-44
2021/01/21 12:46:10;;;;;;;2.50;1.20;;;12.60;75.30;;;;;;5096405;28;20246;-46
2021/01/21 12:48:36;;;;;;;1.02;0.98;;;12.60;75.30;;;;;;5088469;28;20028;-44
2021/01/21 12:51:02;;;;;;;1.30;1.15;;;12.60;75.40;;;;;;5091782;28;20044;-43